Time;durP1;ratioP1;P1;durP2;ratioP2;P2;SDS_P1;SDS_P2;PMS_P1;PMS_P2;Temp;Humidity;BMP_temperature;BMP_pressure;BME280_temperature;BME280_humidity;BME280_pressure;Samples;Min_cycle;Max_cycle;Signal;HPM_P1;HPM_P2
2022/09/22 00:00:57;;;;;;;0.37;0.37;;;;;;;;;;1898729;75;26317;-57
2022/09/22 00:03:26;;;;;;;0.60;0.60;;;;;;;;;;1892392;74;26207;-56
2022/09/22 00:06:00;;;;;;;0.40;0.40;;;;;;;;;;1893465;74;26232;-52
2022/09/22 00:08:29;;;;;;;0.30;0.30;;;;;;;;;;1875107;74;26671;-55
2022/09/22 00:11:01;;;;;;;0.35;0.35;;;;;;;;;;1891195;74;26246;-55
2022/09/22 00:13:28;;;;;;;0.40;0.40;;;;;;;;;;1875276;74;26340;-58
2022/09/22 00:15:56;;;;;;;0.30;0.30;;;;;;;;;;1883360;74;26259;-60
2022/09/22 00:18:23;;;;;;;0.40;0.40;;;;;;;;;;1902281;74;26776;-61
2022/09/22 00:20:50;;;;;;;0.30;0.30;;;;;;;;;;1920567;74;26230;-63
2022/09/22 00:23:18;;;;;;;0.30;0.30;;;;;;;;;;1904006;75;26207;-52
2022/09/22 00:25:45;;;;;;;0.65;0.33;;;;;;;;;;1903786;75;26226;-56
2022/09/22 00:28:12;;;;;;;0.40;0.40;;;;;;;;;;1904010;75;26247;-55
2022/09/22 00:30:41;;;;;;;0.62;0.40;;;;;;;;;;1903784;75;27386;-53
2022/09/22 00:33:09;;;;;;;0.40;0.40;;;;;;;;;;1903748;75;26282;-55
2022/09/22 00:35:37;;;;;;;0.30;0.30;;;;;;;;;;1903806;75;26195;-52
2022/09/22 00:38:05;;;;;;;0.30;0.30;;;;;;;;;;1898398;75;27377;-53
2022/09/22 00:40:33;;;;;;;0.30;0.30;;;;;;;;;;1903595;75;26222;-58
2022/09/22 00:43:14;;;;;;;0.25;0.25;;;;;;;;;;1904048;75;26729;-52
2022/09/22 00:45:41;;;;;;;0.50;0.50;;;;;;;;;;1902950;75;26686;-56
2022/09/22 00:48:09;;;;;;;0.40;0.40;;;;;;;;;;1903894;75;26296;-52
2022/09/22 00:50:36;;;;;;;0.30;0.30;;;;;;;;;;1903805;75;26305;-52
2022/09/22 00:53:05;;;;;;;0.23;0.23;;;;;;;;;;1903747;75;26239;-50
2022/09/22 00:55:36;;;;;;;0.42;0.42;;;;;;;;;;1903237;75;26250;-60
2022/09/22 00:58:05;;;;;;;0.20;0.20;;;;;;;;;;1902201;74;26750;-54
2022/09/22 01:00:33;;;;;;;0.33;0.33;;;;;;;;;;1903938;74;26637;-56
2022/09/22 01:03:01;;;;;;;0.35;0.35;;;;;;;;;;1898676;74;26227;-53
2022/09/22 01:05:29;;;;;;;0.30;0.30;;;;;;;;;;1900337;74;26235;-56
2022/09/22 01:07:57;;;;;;;0.40;0.40;;;;;;;;;;1894941;74;26887;-56
2022/09/22 01:10:26;;;;;;;0.30;0.30;;;;;;;;;;1898637;74;26251;-53
2022/09/22 01:12:55;;;;;;;0.35;0.35;;;;;;;;;;1893315;74;26351;-52
2022/09/22 01:15:32;;;;;;;0.65;0.40;;;;;;;;;;1882107;74;26700;-55
2022/09/22 01:18:07;;;;;;;0.37;0.37;;;;;;;;;;1901560;74;26275;-51
2022/09/22 01:20:42;;;;;;;0.40;0.40;;;;;;;;;;1900853;75;26714;-54
2022/09/22 01:23:17;;;;;;;0.20;0.20;;;;;;;;;;1903188;75;26223;-53
2022/09/22 01:25:58;;;;;;;0.28;0.28;;;;;;;;;;1903804;75;26811;-54
2022/09/22 01:28:42;;;;;;;0.30;0.30;;;;;;;;;;1903896;75;26227;-54
2022/09/22 01:31:14;;;;;;;0.20;0.20;;;;;;;;;;1904024;75;26223;-54
2022/09/22 01:33:42;;;;;;;0.30;0.30;;;;;;;;;;1908411;74;26227;-56
2022/09/22 01:36:11;;;;;;;0.28;0.28;;;;;;;;;;1901292;75;26273;-51
2022/09/22 01:38:52;;;;;;;0.30;0.30;;;;;;;;;;1897005;75;26254;-56
2022/09/22 01:41:21;;;;;;;0.40;0.40;;;;;;;;;;1904240;75;26683;-57
2022/09/22 01:43:59;;;;;;;0.23;0.23;;;;;;;;;;1902453;75;26703;-55
2022/09/22 01:46:27;;;;;;;0.30;0.30;;;;;;;;;;1903682;75;26261;-51
2022/09/22 01:48:56;;;;;;;0.20;0.20;;;;;;;;;;1903765;75;26305;-54
2022/09/22 01:51:40;;;;;;;0.23;0.23;;;;;;;;;;1896575;75;26234;-54
2022/09/22 01:54:09;;;;;;;0.20;0.20;;;;;;;;;;1901731;74;26809;-52
2022/09/22 01:56:37;;;;;;;0.30;0.30;;;;;;;;;;1903620;75;26686;-57
2022/09/22 01:59:05;;;;;;;0.23;0.23;;;;;;;;;;1903950;75;26237;-51
2022/09/22 02:01:34;;;;;;;0.20;0.20;;;;;;;;;;1903571;74;26247;-59
2022/09/22 02:04:06;;;;;;;0.30;0.30;;;;;;;;;;1887415;74;26334;-53
2022/09/22 02:06:35;;;;;;;0.37;0.37;;;;;;;;;;1899778;75;26178;-53
2022/09/22 02:09:06;;;;;;;0.30;0.30;;;;;;;;;;1908871;75;26285;-52
2022/09/22 02:11:34;;;;;;;0.42;0.30;;;;;;;;;;1905947;75;26171;-54
2022/09/22 02:14:02;;;;;;;0.20;0.20;;;;;;;;;;1904408;75;26237;-54
2022/09/22 02:16:30;;;;;;;0.20;0.20;;;;;;;;;;1889007;74;26722;-53
2022/09/22 02:19:04;;;;;;;0.40;0.40;;;;;;;;;;1875127;74;26239;-55
2022/09/22 02:21:32;;;;;;;0.33;0.33;;;;;;;;;;1866624;74;26259;-53
2022/09/22 02:23:59;;;;;;;0.30;0.30;;;;;;;;;;1897909;74;26174;-54
2022/09/22 02:26:28;;;;;;;0.25;0.25;;;;;;;;;;1897752;75;26241;-58
2022/09/22 02:29:01;;;;;;;0.20;0.20;;;;;;;;;;1897555;75;26235;-53
2022/09/22 02:31:29;;;;;;;0.30;0.30;;;;;;;;;;1897743;75;26278;-58
2022/09/22 02:33:57;;;;;;;0.20;0.20;;;;;;;;;;1902810;74;26692;-55
2022/09/22 02:36:29;;;;;;;0.47;0.47;;;;;;;;;;1894613;75;26244;-56
2022/09/22 02:39:01;;;;;;;0.30;0.30;;;;;;;;;;1893692;75;26643;-53
2022/09/22 02:41:29;;;;;;;0.20;0.20;;;;;;;;;;1913476;74;26199;-53
2022/09/22 02:43:58;;;;;;;0.40;0.40;;;;;;;;;;1885838;74;26580;-54
2022/09/22 02:46:30;;;;;;;1.15;0.20;;;;;;;;;;1895625;75;26278;-58
2022/09/22 02:48:59;;;;;;;0.20;0.20;;;;;;;;;;1897393;75;26231;-54
2022/09/22 02:51:27;;;;;;;0.30;0.30;;;;;;;;;;1896106;75;26332;-54
2022/09/22 02:53:55;;;;;;;0.30;0.30;;;;;;;;;;1897518;75;26297;-52
2022/09/22 02:56:22;;;;;;;0.30;0.30;;;;;;;;;;1897711;75;26228;-55
2022/09/22 02:58:49;;;;;;;0.20;0.20;;;;;;;;;;1897603;75;26277;-51
2022/09/22 03:01:16;;;;;;;0.20;0.20;;;;;;;;;;1877766;74;26227;-63
2022/09/22 03:03:44;;;;;;;0.28;0.28;;;;;;;;;;1868225;74;26242;-57
2022/09/22 03:06:11;;;;;;;0.40;0.40;;;;;;;;;;1875059;74;26307;-56
2022/09/22 03:08:38;;;;;;;0.10;0.10;;;;;;;;;;1875854;74;26230;-51
2022/09/22 03:11:06;;;;;;;0.25;0.25;;;;;;;;;;1868524;74;26206;-55
2022/09/22 03:13:33;;;;;;;0.30;0.30;;;;;;;;;;1872548;74;26243;-56
2022/09/22 03:16:00;;;;;;;0.30;0.30;;;;;;;;;;1900900;75;26239;-54
2022/09/22 03:18:27;;;;;;;0.30;0.30;;;;;;;;;;1897796;74;26261;-57
2022/09/22 03:20:55;;;;;;;0.30;0.30;;;;;;;;;;1887271;74;26210;-54
2022/09/22 03:23:22;;;;;;;0.20;0.20;;;;;;;;;;1878401;74;26207;-54
2022/09/22 03:25:49;;;;;;;0.40;0.40;;;;;;;;;;1869196;74;26299;-56
2022/09/22 03:28:17;;;;;;;0.20;0.20;;;;;;;;;;1817896;77;26873;-54
2022/09/22 03:30:44;;;;;;;0.10;0.10;;;;;;;;;;1812927;77;26276;-54
2022/09/22 03:33:11;;;;;;;0.25;0.25;;;;;;;;;;1824957;77;26271;-53
2022/09/22 03:35:38;;;;;;;0.30;0.30;;;;;;;;;;1819848;77;26263;-57
2022/09/22 03:38:06;;;;;;;0.30;0.30;;;;;;;;;;1819297;77;26336;-53
2022/09/22 03:40:33;;;;;;;0.20;0.20;;;;;;;;;;1818913;77;26232;-55
2022/09/22 03:43:00;;;;;;;0.20;0.20;;;;;;;;;;1811463;77;26348;-52
2022/09/22 03:45:27;;;;;;;0.30;0.30;;;;;;;;;;1819728;77;26727;-57
2022/09/22 03:47:55;;;;;;;0.20;0.20;;;;;;;;;;1811435;77;26683;-58
2022/09/22 03:50:22;;;;;;;0.20;0.20;;;;;;;;;;1818751;77;26734;-55
2022/09/22 03:52:49;;;;;;;0.20;0.20;;;;;;;;;;1814093;77;26743;-53
2022/09/22 03:55:16;;;;;;;0.30;0.30;;;;;;;;;;1816095;77;26744;-54
2022/09/22 03:57:44;;;;;;;0.20;0.20;;;;;;;;;;1819286;77;26267;-51
2022/09/22 04:00:12;;;;;;;0.30;0.30;;;;;;;;;;1852179;76;26267;-50
2022/09/22 04:02:40;;;;;;;0.13;0.13;;;;;;;;;;1859622;76;26294;-52
2022/09/22 04:05:08;;;;;;;0.20;0.20;;;;;;;;;;1872298;76;26295;-59
2022/09/22 04:07:35;;;;;;;0.20;0.20;;;;;;;;;;1859683;76;26247;-54
2022/09/22 04:10:03;;;;;;;0.20;0.20;;;;;;;;;;1853253;76;26276;-51
2022/09/22 04:12:30;;;;;;;0.20;0.20;;;;;;;;;;1851403;77;26271;-56
2022/09/22 04:14:58;;;;;;;0.17;0.17;;;;;;;;;;1849299;76;26261;-53
2022/09/22 04:17:25;;;;;;;0.20;0.20;;;;;;;;;;1852639;76;26337;-58
2022/09/22 04:19:54;;;;;;;0.20;0.20;;;;;;;;;;1844634;76;26229;-51
2022/09/22 04:22:21;;;;;;;0.17;0.17;;;;;;;;;;1827369;76;26278;-55
2022/09/22 04:24:48;;;;;;;0.20;0.20;;;;;;;;;;1834015;77;26317;-52
2022/09/22 04:27:16;;;;;;;0.20;0.20;;;;;;;;;;1829051;77;26277;-57
2022/09/22 04:29:43;;;;;;;1.12;0.20;;;;;;;;;;1810823;78;26268;-57
2022/09/22 04:32:10;;;;;;;0.20;0.20;;;;;;;;;;1799323;78;26233;-51
2022/09/22 04:34:38;;;;;;;0.23;0.23;;;;;;;;;;1833233;77;26680;-51
2022/09/22 04:37:05;;;;;;;0.20;0.20;;;;;;;;;;1840745;76;26272;-49
2022/09/22 04:39:32;;;;;;;0.25;0.25;;;;;;;;;;1802559;78;26289;-53
2022/09/22 04:41:59;;;;;;;0.13;0.13;;;;;;;;;;1800886;78;26385;-53
2022/09/22 04:44:27;;;;;;;0.35;0.20;;;;;;;;;;1837820;76;26202;-54
2022/09/22 04:46:56;;;;;;;0.20;0.20;;;;;;;;;;1839382;76;26270;-56
2022/09/22 04:49:23;;;;;;;0.30;0.30;;;;;;;;;;1839465;76;26352;-59
2022/09/22 04:51:50;;;;;;;0.60;0.20;;;;;;;;;;1839238;77;26853;-54
2022/09/22 04:54:18;;;;;;;2.02;0.40;;;;;;;;;;1838883;76;26747;-55
2022/09/22 04:56:45;;;;;;;1.98;0.40;;;;;;;;;;1834767;76;26294;-52
2022/09/22 04:59:12;;;;;;;2.08;0.40;;;;;;;;;;1838949;76;26732;-59
2022/09/22 05:01:40;;;;;;;1.30;0.55;;;;;;;;;;1838961;76;26765;-59
2022/09/22 05:04:08;;;;;;;0.70;0.50;;;;;;;;;;1839280;76;26322;-55
2022/09/22 05:06:35;;;;;;;0.80;0.53;;;;;;;;;;1838184;77;26348;-60
2022/09/22 05:09:03;;;;;;;1.20;0.50;;;;;;;;;;1838513;77;26734;-61
2022/09/22 05:11:31;;;;;;;1.25;0.40;;;;;;;;;;1843987;77;26266;-56
2022/09/22 05:13:58;;;;;;;0.72;0.65;;;;;;;;;;1838945;77;26655;-54
2022/09/22 05:16:26;;;;;;;0.50;0.42;;;;;;;;;;1838849;76;26317;-52
2022/09/22 05:18:53;;;;;;;1.17;0.50;;;;;;;;;;1840523;76;26314;-56
2022/09/22 05:21:20;;;;;;;1.85;0.60;;;;;;;;;;1848980;76;26338;-63
2022/09/22 05:23:48;;;;;;;3.45;0.60;;;;;;;;;;1848925;76;26373;-53
2022/09/22 05:26:15;;;;;;;1.35;0.50;;;;;;;;;;1850111;76;26308;-58
2022/09/22 05:28:42;;;;;;;1.12;0.80;;;;;;;;;;1850109;76;26399;-57
2022/09/22 05:31:09;;;;;;;3.62;1.25;;;;;;;;;;1849913;76;26250;-55
2022/09/22 05:33:37;;;;;;;2.60;0.53;;;;;;;;;;1849805;76;26274;-50
2022/09/22 05:36:04;;;;;;;1.25;0.40;;;;;;;;;;1851740;76;26280;-52
2022/09/22 05:38:31;;;;;;;3.83;0.60;;;;;;;;;;1848048;76;26887;-49
2022/09/22 05:40:58;;;;;;;0.98;0.60;;;;;;;;;;1845547;76;27164;-58
2022/09/22 05:43:26;;;;;;;3.27;0.60;;;;;;;;;;1849904;76;26254;-58
2022/09/22 05:45:53;;;;;;;3.15;0.68;;;;;;;;;;1847001;76;26293;-57
2022/09/22 05:48:20;;;;;;;5.80;0.82;;;;;;;;;;1846596;76;26278;-52
2022/09/22 05:50:48;;;;;;;2.05;0.55;;;;;;;;;;1821322;77;26825;-53
2022/09/22 05:53:15;;;;;;;1.00;0.50;;;;;;;;;;1815134;79;27496;-53
2022/09/22 05:55:43;;;;;;;0.47;0.47;;;;;;;;;;1830007;76;26335;-58
2022/09/22 05:58:10;;;;;;;1.75;0.70;;;;;;;;;;1844583;76;26259;-54
2022/09/22 06:00:38;;;;;;;2.85;1.00;;;;;;;;;;1827083;76;26281;-56
2022/09/22 06:03:06;;;;;;;7.20;0.80;;;;;;;;;;1822169;77;26522;-59
2022/09/22 06:05:33;;;;;;;1.17;0.80;;;;;;;;;;1815803;79;26397;-60
2022/09/22 06:08:02;;;;;;;3.80;0.82;;;;;;;;;;1839763;76;26741;-46
2022/09/22 06:10:30;;;;;;;4.67;0.72;;;;;;;;;;1840151;76;26671;-46
2022/09/22 06:12:59;;;;;;;3.52;0.65;;;;;;;;;;1844603;76;26274;-47
2022/09/22 06:15:27;;;;;;;2.40;0.72;;;;;;;;;;1842191;76;26709;-47
2022/09/22 06:17:55;;;;;;;3.83;0.68;;;;;;;;;;1844803;76;26238;-47
2022/09/22 06:20:22;;;;;;;3.05;0.88;;;;;;;;;;1826142;76;26762;-49
2022/09/22 06:22:50;;;;;;;3.40;0.80;;;;;;;;;;1824264;77;26730;-50
2022/09/22 06:25:17;;;;;;;1.45;0.70;;;;;;;;;;1822608;77;26783;-56
2022/09/22 06:27:45;;;;;;;3.55;0.70;;;;;;;;;;1824758;77;26697;-55
2022/09/22 06:30:13;;;;;;;2.92;0.70;;;;;;;;;;1829629;77;26345;-50
2022/09/22 06:32:42;;;;;;;0.88;0.62;;;;;;;;;;1821588;77;26312;-59
2022/09/22 06:35:10;;;;;;;2.10;0.70;;;;;;;;;;1823797;77;26301;-55
2022/09/22 06:37:37;;;;;;;1.12;0.60;;;;;;;;;;1819311;77;26401;-51
2022/09/22 06:40:07;;;;;;;0.70;0.60;;;;;;;;;;1823644;77;27136;-49
2022/09/22 06:42:34;;;;;;;1.42;0.70;;;;;;;;;;1822604;77;26301;-56
2022/09/22 06:45:03;;;;;;;2.17;0.60;;;;;;;;;;1824908;77;27537;-52
2022/09/22 06:47:31;;;;;;;0.75;0.70;;;;;;;;;;1827660;77;26757;-52
2022/09/22 06:50:04;;;;;;;2.02;0.60;;;;;;;;;;1814848;77;26373;-54
2022/09/22 06:52:28;;;;;;;0.50;0.50;;;;;;;;;;1806438;78;26818;-53
2022/09/22 06:54:57;;;;;;;2.17;0.80;;;;;;;;;;1804322;79;26824;-53
2022/09/22 06:57:26;;;;;;;1.45;0.55;;;;;;;;;;1806298;78;26287;-51
2022/09/22 06:59:53;;;;;;;2.20;0.70;;;;;;;;;;1806017;77;26295;-48
2022/09/22 07:02:23;;;;;;;1.02;0.60;;;;;;;;;;1806112;79;26263;-52
2022/09/22 07:04:51;;;;;;;0.88;0.62;;;;;;;;;;1809167;77;26294;-51
2022/09/22 07:07:18;;;;;;;0.72;0.60;;;;;;;;;;1802723;78;26385;-53
2022/09/22 07:09:45;;;;;;;1.60;0.40;;;;;;;;;;1806332;78;26286;-54
2022/09/22 07:12:13;;;;;;;0.72;0.60;;;;;;;;;;1803087;78;26245;-50
2022/09/22 07:14:42;;;;;;;0.53;0.50;;;;;;;;;;1803029;78;26829;-51
2022/09/22 07:17:09;;;;;;;0.68;0.60;;;;;;;;;;1796023;79;26306;-49
2022/09/22 07:19:37;;;;;;;0.62;0.60;;;;;;;;;;1810982;77;26305;-46
2022/09/22 07:22:05;;;;;;;1.95;0.50;;;;;;;;;;1878865;74;26388;-50
2022/09/22 07:24:33;;;;;;;0.40;0.40;;;;;;;;;;1880246;74;26296;-50
2022/09/22 07:27:05;;;;;;;0.50;0.50;;;;;;;;;;1877957;74;26638;-50
2022/09/22 07:29:29;;;;;;;0.60;0.60;;;;;;;;;;1884968;74;27457;-48
2022/09/22 07:31:58;;;;;;;0.50;0.50;;;;;;;;;;1883625;74;26231;-52
2022/09/22 07:34:28;;;;;;;1.30;0.50;;;;;;;;;;1881674;74;26843;-54
2022/09/22 07:36:55;;;;;;;0.60;0.60;;;;;;;;;;1833446;77;26258;-53
2022/09/22 07:39:23;;;;;;;0.60;0.60;;;;;;;;;;1831390;76;26356;-48
2022/09/22 07:41:51;;;;;;;1.57;0.60;;;;;;;;;;1832190;76;26293;-50
2022/09/22 07:47:04;;;;;;;2.35;0.70;;;;;;;;;;1849319;76;26304;-52
2022/09/22 07:49:31;;;;;;;0.65;0.53;;;;;;;;;;1849318;76;26801;-47
2022/09/22 07:51:58;;;;;;;0.80;0.57;;;;;;;;;;1849046;76;26673;-45
2022/09/22 07:54:26;;;;;;;1.55;0.60;;;;;;;;;;1844507;76;26657;-49
2022/09/22 07:57:01;;;;;;;0.50;0.47;;;;;;;;;;1821115;77;26348;-52
2022/09/22 07:59:28;;;;;;;0.50;0.50;;;;;;;;;;1857295;76;26717;-50
2022/09/22 08:01:55;;;;;;;0.53;0.50;;;;;;;;;;1833534;77;26270;-46
2022/09/22 08:04:23;;;;;;;0.42;0.42;;;;;;;;;;1854401;76;26229;-56
2022/09/22 08:06:54;;;;;;;0.88;0.47;;;;;;;;;;1823956;77;26708;-57
2022/09/22 08:09:20;;;;;;;0.50;0.50;;;;;;;;;;1806676;79;26354;-55
2022/09/22 08:11:48;;;;;;;0.50;0.50;;;;;;;;;;1834694;78;26454;-54
2022/09/22 08:14:17;;;;;;;0.45;0.45;;;;;;;;;;1848503;76;26217;-56
2022/09/22 08:16:44;;;;;;;0.93;0.55;;;;;;;;;;1853457;77;26734;-54
2022/09/22 08:19:13;;;;;;;0.70;0.70;;;;;;;;;;1855764;76;26267;-57
2022/09/22 08:21:42;;;;;;;0.40;0.40;;;;;;;;;;1857354;76;26273;-58
2022/09/22 08:24:10;;;;;;;0.70;0.53;;;;;;;;;;1866090;76;26217;-55
2022/09/22 08:26:38;;;;;;;0.68;0.40;;;;;;;;;;1865074;75;26708;-57
2022/09/22 08:29:06;;;;;;;0.40;0.40;;;;;;;;;;1856689;76;26263;-58
2022/09/22 08:31:34;;;;;;;1.17;0.60;;;;;;;;;;1861255;76;26722;-59
2022/09/22 08:34:04;;;;;;;0.68;0.68;;;;;;;;;;1856363;77;25760;-50
2022/09/22 08:36:31;;;;;;;0.30;0.30;;;;;;;;;;1867484;75;26691;-52
2022/09/22 08:39:02;;;;;;;0.53;0.50;;;;;;;;;;1863316;76;26732;-49
2022/09/22 08:41:37;;;;;;;2.08;0.50;;;;;;;;;;1861891;76;26285;-45
2022/09/22 08:44:09;;;;;;;0.45;0.40;;;;;;;;;;1863561;76;26352;-52
2022/09/22 08:46:38;;;;;;;0.40;0.40;;;;;;;;;;1856432;76;26306;-53
2022/09/22 08:52:06;;;;;;;0.40;0.40;;;;;;;;;;1852882;76;26280;-54
2022/09/22 08:54:34;;;;;;;0.35;0.35;;;;;;;;;;1850970;76;26360;-50
2022/09/22 08:57:15;;;;;;;0.80;0.37;;;;;;;;;;1840496;76;26278;-53
2022/09/22 08:59:52;;;;;;;0.40;0.40;;;;;;;;;;1834044;76;26317;-50
2022/09/22 09:02:21;;;;;;;0.28;0.20;;;;;;;;;;1834908;76;26691;-50
2022/09/22 09:05:02;;;;;;;0.20;0.20;;;;;;;;;;1841166;76;26728;-52
2022/09/22 09:07:42;;;;;;;0.40;0.40;;;;;;;;;;1837268;76;26238;-53
2022/09/22 09:10:14;;;;;;;0.40;0.40;;;;;;;;;;1861133;76;26785;-51
2022/09/22 09:12:48;;;;;;;0.30;0.30;;;;;;;;;;1858845;76;26323;-56
2022/09/22 09:15:16;;;;;;;0.30;0.30;;;;;;;;;;1852215;76;26252;-51
2022/09/22 09:17:46;;;;;;;0.30;0.30;;;;;;;;;;1857212;76;26240;-57
2022/09/22 09:20:18;;;;;;;0.50;0.50;;;;;;;;;;1861838;76;26308;-54
2022/09/22 09:22:50;;;;;;;0.75;0.40;;;;;;;;;;1855852;76;26287;-56
2022/09/22 09:25:21;;;;;;;0.30;0.30;;;;;;;;;;1856857;76;26318;-54
2022/09/22 09:27:53;;;;;;;0.30;0.30;;;;;;;;;;1856543;76;26321;-52
2022/09/22 09:30:21;;;;;;;0.30;0.30;;;;;;;;;;1856214;76;26335;-56
2022/09/22 09:32:53;;;;;;;0.40;0.40;;;;;;;;;;1856671;76;26314;-53
2022/09/22 09:35:25;;;;;;;0.20;0.20;;;;;;;;;;1856582;77;26263;-57
2022/09/22 09:37:54;;;;;;;0.30;0.30;;;;;;;;;;1856229;76;26262;-58
2022/09/22 09:40:22;;;;;;;0.23;0.23;;;;;;;;;;1843666;76;26687;-57
2022/09/22 09:42:57;;;;;;;0.30;0.30;;;;;;;;;;1835181;76;26295;-56
2022/09/22 09:45:26;;;;;;;0.23;0.23;;;;;;;;;;1842721;76;26309;-53
2022/09/22 09:48:01;;;;;;;0.30;0.30;;;;;;;;;;1828432;76;26283;-51
2022/09/22 09:50:30;;;;;;;0.40;0.40;;;;;;;;;;1840038;75;26328;-56
2022/09/22 09:52:59;;;;;;;1.45;0.40;;;;;;;;;;1832092;75;26356;-48
2022/09/22 09:55:27;;;;;;;0.40;0.40;;;;;;;;;;1849098;76;26826;-49
2022/09/22 09:58:02;;;;;;;0.45;0.45;;;;;;;;;;1838955;76;26313;-46
2022/09/22 10:00:32;;;;;;;0.33;0.33;;;;;;;;;;1843437;76;26207;-58
2022/09/22 10:03:04;;;;;;;2.27;0.40;;;;;;;;;;1836426;76;26557;-56
2022/09/22 10:05:36;;;;;;;0.72;0.30;;;;;;;;;;1834501;76;26223;-58
2022/09/22 10:08:03;;;;;;;0.30;0.30;;;;;;;;;;1835167;75;26321;-58
2022/09/22 10:10:31;;;;;;;0.25;0.25;;;;;;;;;;1856846;76;26321;-56
2022/09/22 10:13:06;;;;;;;0.85;0.20;;;;;;;;;;1859491;76;26308;-53
2022/09/22 10:15:40;;;;;;;0.30;0.30;;;;;;;;;;1856515;77;26255;-55
2022/09/22 10:18:27;;;;;;;1.32;0.30;;;;;;;;;;1857997;76;26243;-54
2022/09/22 10:20:59;;;;;;;0.30;0.30;;;;;;;;;;1852095;76;26229;-56
2022/09/22 10:23:27;;;;;;;0.30;0.30;;;;;;;;;;1853211;76;26340;-56
2022/09/22 10:25:56;;;;;;;8.50;0.40;;;;;;;;;;1834562;76;26360;-53
2022/09/22 10:28:24;;;;;;;0.42;0.42;;;;;;;;;;1839172;76;26208;-56
2022/09/22 10:30:59;;;;;;;1.98;0.50;;;;;;;;;;1841233;76;26352;-58
2022/09/22 10:33:26;;;;;;;1.30;0.30;;;;;;;;;;1853092;76;26271;-58
2022/09/22 10:35:55;;;;;;;0.88;0.28;;;;;;;;;;1851340;76;26683;-54
2022/09/22 10:38:25;;;;;;;2.27;0.40;;;;;;;;;;1853585;76;26799;-48
2022/09/22 10:40:57;;;;;;;0.50;0.40;;;;;;;;;;1853589;76;26687;-52
2022/09/22 10:43:29;;;;;;;0.35;0.30;;;;;;;;;;1853899;76;26688;-53
2022/09/22 10:45:57;;;;;;;1.05;0.30;;;;;;;;;;1850044;76;26341;-52
2022/09/22 10:48:30;;;;;;;0.45;0.45;;;;;;;;;;1854193;76;26243;-53
2022/09/22 10:51:11;;;;;;;1.90;0.45;;;;;;;;;;1853794;75;26283;-54
2022/09/22 10:53:40;;;;;;;0.90;0.42;;;;;;;;;;1852978;76;26273;-55
2022/09/22 10:56:08;;;;;;;1.22;0.40;;;;;;;;;;1853636;76;26379;-55
2022/09/22 10:58:38;;;;;;;0.53;0.45;;;;;;;;;;1849290;76;26201;-54
2022/09/22 11:01:19;;;;;;;0.53;0.30;;;;;;;;;;1848555;76;26263;-55
2022/09/22 11:04:00;;;;;;;0.37;0.37;;;;;;;;;;1852625;76;26720;-50
2022/09/22 11:12:26;;;;;;;0.30;0.30;;;;;;;;;;1852191;76;26276;-53
2022/09/22 11:14:55;;;;;;;0.30;0.30;;;;;;;;;;1855503;76;26295;-56
2022/09/22 11:17:24;;;;;;;0.20;0.20;;;;;;;;;;1844946;76;26290;-52
2022/09/22 11:19:57;;;;;;;0.40;0.30;;;;;;;;;;1855276;76;26315;-61
2022/09/22 11:22:29;;;;;;;1.25;0.30;;;;;;;;;;1850941;76;27430;-56
2022/09/22 11:25:00;;;;;;;0.40;0.40;;;;;;;;;;1853744;76;26357;-54
2022/09/22 11:27:42;;;;;;;0.20;0.20;;;;;;;;;;1856487;76;26713;-54
2022/09/22 11:30:19;;;;;;;0.30;0.30;;;;;;;;;;1852145;76;26358;-54
2022/09/22 11:32:53;;;;;;;0.28;0.28;;;;;;;;;;1860429;76;26322;-58
2022/09/22 11:35:24;;;;;;;0.40;0.30;;;;;;;;;;1849893;76;27518;-48
2022/09/22 11:37:55;;;;;;;0.40;0.40;;;;;;;;;;1857105;76;26325;-52
2022/09/22 11:40:27;;;;;;;0.37;0.37;;;;;;;;;;1854937;76;27362;-58
2022/09/22 11:43:12;;;;;;;0.50;0.50;;;;;;;;;;1855718;76;26287;-48
2022/09/22 11:45:41;;;;;;;0.30;0.30;;;;;;;;;;1856684;76;26275;-49
2022/09/22 11:48:10;;;;;;;1.25;0.47;;;;;;;;;;1849717;76;26302;-49
2022/09/22 11:50:55;;;;;;;0.30;0.30;;;;;;;;;;1852611;76;26755;-54
2022/09/22 11:53:30;;;;;;;0.35;0.35;;;;;;;;;;1853567;76;26306;-47
2022/09/22 11:56:14;;;;;;;0.25;0.25;;;;;;;;;;1855165;76;26293;-51
2022/09/22 11:58:43;;;;;;;0.30;0.30;;;;;;;;;;1854391;76;26868;-48
2022/09/22 12:01:14;;;;;;;0.40;0.40;;;;;;;;;;1855367;76;26335;-51
2022/09/22 12:03:43;;;;;;;0.30;0.30;;;;;;;;;;1849669;76;26288;-51
2022/09/22 12:06:12;;;;;;;0.65;0.40;;;;;;;;;;1852317;76;26255;-49
2022/09/22 12:08:44;;;;;;;0.30;0.30;;;;;;;;;;1851721;76;26348;-49
2022/09/22 12:11:13;;;;;;;0.88;0.45;;;;;;;;;;1850312;76;26337;-50
2022/09/22 12:13:42;;;;;;;0.75;0.45;;;;;;;;;;1854269;76;26521;-49
2022/09/22 12:16:11;;;;;;;0.30;0.30;;;;;;;;;;1852790;76;26263;-50
2022/09/22 12:18:42;;;;;;;0.62;0.50;;;;;;;;;;1849430;76;26280;-56
2022/09/22 12:21:14;;;;;;;0.40;0.40;;;;;;;;;;1847326;76;26228;-54
2022/09/22 12:23:43;;;;;;;0.75;0.47;;;;;;;;;;1846465;76;27910;-47
2022/09/22 12:26:12;;;;;;;1.40;0.40;;;;;;;;;;1864661;74;26320;-59
2022/09/22 12:28:41;;;;;;;1.65;0.37;;;;;;;;;;1876862;74;26247;-53
2022/09/22 12:31:12;;;;;;;1.50;0.55;;;;;;;;;;1876526;74;26695;-53
2022/09/22 12:33:42;;;;;;;0.98;0.50;;;;;;;;;;1877722;74;26235;-59
2022/09/22 12:36:09;;;;;;;0.30;0.30;;;;;;;;;;1888950;74;26852;-49
2022/09/22 12:38:37;;;;;;;0.42;0.30;;;;;;;;;;1882642;74;26246;-54
2022/09/22 12:41:05;;;;;;;0.20;0.20;;;;;;;;;;1879364;74;26548;-57
2022/09/22 12:43:34;;;;;;;0.30;0.30;;;;;;;;;;1892205;74;26183;-48
2022/09/22 12:46:03;;;;;;;2.72;0.53;;;;;;;;;;1890850;74;26304;-49
2022/09/22 12:48:31;;;;;;;1.45;0.50;;;;;;;;;;1893918;74;26355;-47
2022/09/22 12:51:17;;;;;;;0.35;0.30;;;;;;;;;;1905330;74;26250;-49
2022/09/22 12:53:44;;;;;;;0.30;0.30;;;;;;;;;;1893455;74;26715;-50
2022/09/22 12:56:30;;;;;;;0.30;0.30;;;;;;;;;;1889446;74;26777;-50
2022/09/22 12:58:57;;;;;;;0.40;0.40;;;;;;;;;;1885133;75;26251;-55
2022/09/22 13:01:31;;;;;;;1.02;0.40;;;;;;;;;;1889224;74;26288;-49
2022/09/22 13:04:03;;;;;;;0.35;0.35;;;;;;;;;;1892914;74;26836;-48
2022/09/22 13:06:31;;;;;;;0.40;0.40;;;;;;;;;;1885101;75;26324;-50
2022/09/22 13:09:00;;;;;;;0.40;0.40;;;;;;;;;;1891912;74;26238;-53
2022/09/22 13:11:45;;;;;;;0.33;0.33;;;;;;;;;;1886894;74;26669;-51
2022/09/22 13:14:31;;;;;;;0.30;0.30;;;;;;;;;;1894059;74;26262;-51
2022/09/22 13:16:58;;;;;;;0.30;0.30;;;;;;;;;;1897815;75;26262;-55
2022/09/22 13:19:25;;;;;;;0.28;0.28;;;;;;;;;;1894831;74;26215;-53
2022/09/22 13:21:53;;;;;;;0.25;0.25;;;;;;;;;;1887720;74;26226;-47
2022/09/22 13:24:21;;;;;;;0.37;0.37;;;;;;;;;;1883327;74;26286;-55
2022/09/22 13:26:49;;;;;;;2.65;0.33;;;;;;;;;;1893194;75;26263;-55
2022/09/22 13:29:18;;;;;;;0.95;0.50;;;;;;;;;;1894167;75;26223;-53
2022/09/22 13:31:54;;;;;;;0.60;0.37;;;;;;;;;;1896162;75;26247;-53
2022/09/22 13:34:20;;;;;;;0.30;0.30;;;;;;;;;;1891991;74;26814;-53
2022/09/22 13:36:48;;;;;;;5.75;1.55;;;;;;;;;;1890669;74;26316;-57
2022/09/22 13:39:16;;;;;;;3.95;0.78;;;;;;;;;;1885832;74;26780;-55
2022/09/22 13:41:49;;;;;;;2.95;1.00;;;;;;;;;;1892431;74;26765;-54
2022/09/22 13:44:18;;;;;;;6.17;0.82;;;;;;;;;;1898502;75;26540;-50
2022/09/22 13:46:46;;;;;;;4.10;0.82;;;;;;;;;;1895555;75;26297;-61
2022/09/22 13:49:24;;;;;;;1.57;0.72;;;;;;;;;;1906237;74;27508;-51
2022/09/22 13:51:56;;;;;;;5.00;0.88;;;;;;;;;;1909809;74;26745;-54
2022/09/22 13:54:26;;;;;;;5.53;0.80;;;;;;;;;;1900059;74;26663;-55
2022/09/22 13:56:54;;;;;;;3.08;0.55;;;;;;;;;;1882642;74;26267;-48
2022/09/22 13:59:21;;;;;;;1.90;0.72;;;;;;;;;;1896130;75;26827;-60
2022/09/22 14:01:54;;;;;;;1.07;0.60;;;;;;;;;;1880311;74;26235;-55
2022/09/22 14:04:25;;;;;;;2.05;0.40;;;;;;;;;;1896117;74;26478;-55
2022/09/22 14:06:54;;;;;;;0.78;0.60;;;;;;;;;;1892680;74;26618;-53
2022/09/22 14:09:22;;;;;;;2.80;0.57;;;;;;;;;;1896134;74;26743;-63
2022/09/22 14:11:49;;;;;;;3.42;0.40;;;;;;;;;;1895418;74;26293;-53
2022/09/22 14:14:23;;;;;;;4.78;0.75;;;;;;;;;;1904659;74;26335;-49
2022/09/22 14:16:55;;;;;;;0.40;0.40;;;;;;;;;;1899070;74;27373;-49
2022/09/22 14:19:25;;;;;;;1.30;0.60;;;;;;;;;;1894713;74;26663;-58
2022/09/22 14:21:54;;;;;;;1.87;0.53;;;;;;;;;;1893383;74;27545;-58
2022/09/22 14:24:21;;;;;;;1.25;0.50;;;;;;;;;;1894953;74;26316;-52
2022/09/22 14:26:50;;;;;;;1.22;0.30;;;;;;;;;;1901465;74;26308;-54
2022/09/22 14:29:19;;;;;;;0.95;0.60;;;;;;;;;;1900826;74;26234;-49
2022/09/22 14:31:48;;;;;;;0.80;0.40;;;;;;;;;;1895637;74;26320;-55
2022/09/22 14:34:17;;;;;;;0.78;0.50;;;;;;;;;;1899265;74;26266;-49
2022/09/22 14:36:45;;;;;;;1.15;0.50;;;;;;;;;;1900012;74;26246;-54
2022/09/22 14:39:14;;;;;;;0.50;0.50;;;;;;;;;;1902298;74;26363;-52
2022/09/22 14:41:43;;;;;;;0.45;0.40;;;;;;;;;;1896088;74;26326;-54
2022/09/22 14:44:25;;;;;;;0.40;0.40;;;;;;;;;;1892687;74;26254;-54
2022/09/22 14:46:54;;;;;;;3.27;0.70;;;;;;;;;;1830351;75;26336;-48
2022/09/22 14:49:39;;;;;;;0.80;0.40;;;;;;;;;;1898886;74;26227;-58
2022/09/22 14:52:08;;;;;;;0.95;0.40;;;;;;;;;;1901634;74;26312;-52
2022/09/22 14:54:37;;;;;;;1.35;0.50;;;;;;;;;;1900554;74;26250;-52
2022/09/22 14:57:06;;;;;;;0.85;0.40;;;;;;;;;;1898455;74;26234;-50
2022/09/22 15:02:35;;;;;;;0.40;0.40;;;;;;;;;;1895468;74;26633;-54
2022/09/22 15:05:03;;;;;;;0.42;0.35;;;;;;;;;;1892849;74;26258;-56
2022/09/22 15:07:32;;;;;;;0.30;0.30;;;;;;;;;;1878879;75;26303;-55
2022/09/22 15:10:01;;;;;;;0.45;0.30;;;;;;;;;;1891649;74;26745;-51
2022/09/22 15:12:37;;;;;;;0.40;0.40;;;;;;;;;;1899670;74;27366;-52